Toba — V7KR8 — position and weather

sailwx.info

Track history (hours):
 
Tides and Currents Weather Stations Pressure Air Temp Water Temp Dewpoint Dewpoint Depression Visibility Wind Speed Wind Dir Waves Ship Positions

Toba

Last reported at 2018-Feb-11 04:28 UTC. Time now 2018-Feb-17 23:50 UTC.
Position N 36°10' E 014°49'.

Length 229 m; draft 14.6 m.

Type: Cargo ship. MMSI: 538006220.

Date/timePositionNaut miles runAvg speedWind from/ knotsBaromVisibWave heightAir tempDewpointWater temp
2018-Feb-11 04:28N 36°10' E 014°49'612.1
2018-Feb-11 03:58N 36°12' E 014°41'612.1
2018-Feb-11 03:30N 36°13' E 014°35'612.1
2018-Feb-11 03:00N 36°15' E 014°27'612.3
2018-Feb-11 02:30N 36°17' E 014°20'612.2
2018-Feb-11 02:00N 36°19' E 014°13'612.3
2018-Feb-11 01:31N 36°21' E 014°06'612.6
2018-Feb-11 01:00N 36°23' E 013°59'612.6
2018-Feb-11 00:30N 36°25' E 013°51'  
2018-Feb-08 04:00N 36°08' W 003°29'612.1
2018-Feb-08 03:30N 36°08' W 003°36'1212.2
2018-Feb-08 02:30N 36°06' W 003°51'6313.3
2018-Feb-07 21:46N 36°03' W 005°09'414.0
2018-Feb-07 21:31N 36°03' W 005°14'8 0.5
2018-Feb-07 06:43N 36°07' W 005°22'0 0.2
2018-Feb-07 06:22N 36°07' W 005°22'0 0.1
2018-Feb-07 05:55N 36°07' W 005°22'0 0.0
2018-Feb-07 05:25N 36°07' W 005°22'0 0.1
2018-Feb-07 04:25N 36°07' W 005°22'0 0.1
2018-Feb-07 03:55N 36°07' W 005°22'0 0.1
2018-Feb-07 03:25N 36°07' W 005°22'0 0.2
2018-Feb-07 02:10N 36°07' W 005°22'0 0.0
2018-Feb-06 03:31N 36°07' W 005°22'0 0.0
2018-Feb-06 03:07N 36°07' W 005°22'0 0.0
2018-Feb-06 02:55N 36°07' W 005°22'3 0.3
2018-Feb-05 16:49N 36°04' W 005°22'27710.2
2018-Feb-04 13:38N 38°44' W 010°06'512.1
2018-Feb-04 13:13N 38°49' W 010°07'212.0
2018-Feb-04 13:00N 38°51' W 010°07'611.7
2018-Feb-04 12:30N 38°57' W 010°07'612.0
2018-Feb-04 12:00N 39°03' W 010°06'612.2
2018-Feb-04 11:30N 39°09' W 010°06'  
2018-Feb-01 22:32N 49°44' W 003°36'612.1
2018-Feb-01 22:00N 49°47' W 003°28'611.4
2018-Feb-01 21:30N 49°50' W 003°20'20 9.9
2018-Feb-01 19:30N 49°59' W 002°53'5 9.5
2018-Feb-01 19:00N 50°00' W 002°46'5 9.7
2018-Feb-01 18:29N 50°02' W 002°38'510.2
2018-Feb-01 18:00N 50°03' W 002°31'2712.9
2018-Feb-01 15:52N 50°11' W 001°50'615.3
2018-Feb-01 15:30N 50°12' W 001°41'815.5
2018-Feb-01 15:00N 50°14' W 001°30'4214.4
2018-Feb-01 12:07N 50°26' W 000°27'112.3
2018-Feb-01 12:00N 50°26' W 000°25'1111.4
2018-Feb-01 11:01N 50°29' W 000°08'510.3
2018-Feb-01 10:31N 50°31' E 000°00'5 9.7
2018-Feb-01 10:00N 50°32' E 000°08'5 9.2
2018-Feb-01 09:31N 50°33' E 000°15'5 9.0
2018-Feb-01 09:00N 50°34' E 000°21'5 9.2
2018-Feb-01 08:30N 50°36' E 000°28'1010.5
2018-Feb-01 07:31N 50°40' E 000°43'612.3
2018-Feb-01 07:01N 50°44' E 000°51'713.0
2018-Feb-01 06:30N 50°47' E 000°60'713.5
2018-Feb-01 05:59N 50°52' E 001°08'613.5
2018-Feb-01 05:31N 50°57' E 001°15'713.1
2018-Feb-01 05:01N 51°01' E 001°22'612.1
2018-Feb-01 04:31N 51°05' E 001°30'  
Track history (hours):
 
Tides and Currents Weather Stations Pressure Air Temp Water Temp Dewpoint Dewpoint Depression Visibility Wind Speed Wind Dir Waves Ship Positions

Toba

Last reported at 2018-Feb-11 04:28 UTC. Time now 2018-Feb-17 23:50 UTC.
Position N 36°10' E 014°49'.

Length 229 m; draft 14.6 m.

Type: Cargo ship. MMSI: 538006220.

Date/timePositionNaut miles runAvg speedWind from/ knotsBaromVisibWave heightAir tempDewpointWater temp
2018-Feb-11 04:28N 36°10' E 014°49'612.1
2018-Feb-11 03:58N 36°12' E 014°41'612.1
2018-Feb-11 03:30N 36°13' E 014°35'612.1
2018-Feb-11 03:00N 36°15' E 014°27'612.3
2018-Feb-11 02:30N 36°17' E 014°20'612.2
2018-Feb-11 02:00N 36°19' E 014°13'612.3
2018-Feb-11 01:31N 36°21' E 014°06'612.6
2018-Feb-11 01:00N 36°23' E 013°59'612.6
2018-Feb-11 00:30N 36°25' E 013°51'  
2018-Feb-08 04:00N 36°08' W 003°29'612.1
2018-Feb-08 03:30N 36°08' W 003°36'1212.2
2018-Feb-08 02:30N 36°06' W 003°51'6313.3
2018-Feb-07 21:46N 36°03' W 005°09'414.0
2018-Feb-07 21:31N 36°03' W 005°14'8 0.5
2018-Feb-07 06:43N 36°07' W 005°22'0 0.2
2018-Feb-07 06:22N 36°07' W 005°22'0 0.1
2018-Feb-07 05:55N 36°07' W 005°22'0 0.0
2018-Feb-07 05:25N 36°07' W 005°22'0 0.1
2018-Feb-07 04:25N 36°07' W 005°22'0 0.1
2018-Feb-07 03:55N 36°07' W 005°22'0 0.1
2018-Feb-07 03:25N 36°07' W 005°22'0 0.2
2018-Feb-07 02:10N 36°07' W 005°22'0 0.0
2018-Feb-06 03:31N 36°07' W 005°22'0 0.0
2018-Feb-06 03:07N 36°07' W 005°22'0 0.0
2018-Feb-06 02:55N 36°07' W 005°22'3 0.3
2018-Feb-05 16:49N 36°04' W 005°22'27710.2
2018-Feb-04 13:38N 38°44' W 010°06'512.1
2018-Feb-04 13:13N 38°49' W 010°07'212.0
2018-Feb-04 13:00N 38°51' W 010°07'611.7
2018-Feb-04 12:30N 38°57' W 010°07'612.0
2018-Feb-04 12:00N 39°03' W 010°06'612.2
2018-Feb-04 11:30N 39°09' W 010°06'  
2018-Feb-01 22:32N 49°44' W 003°36'612.1
2018-Feb-01 22:00N 49°47' W 003°28'611.4
2018-Feb-01 21:30N 49°50' W 003°20'20 9.9
2018-Feb-01 19:30N 49°59' W 002°53'5 9.5
2018-Feb-01 19:00N 50°00' W 002°46'5 9.7
2018-Feb-01 18:29N 50°02' W 002°38'510.2
2018-Feb-01 18:00N 50°03' W 002°31'2712.9
2018-Feb-01 15:52N 50°11' W 001°50'615.3
2018-Feb-01 15:30N 50°12' W 001°41'815.5
2018-Feb-01 15:00N 50°14' W 001°30'4214.4
2018-Feb-01 12:07N 50°26' W 000°27'112.3
2018-Feb-01 12:00N 50°26' W 000°25'1111.4
2018-Feb-01 11:01N 50°29' W 000°08'510.3
2018-Feb-01 10:31N 50°31' E 000°00'5 9.7
2018-Feb-01 10:00N 50°32' E 000°08'5 9.2
2018-Feb-01 09:31N 50°33' E 000°15'5 9.0
2018-Feb-01 09:00N 50°34' E 000°21'5 9.2
2018-Feb-01 08:30N 50°36' E 000°28'1010.5
2018-Feb-01 07:31N 50°40' E 000°43'612.3
2018-Feb-01 07:01N 50°44' E 000°51'713.0
2018-Feb-01 06:30N 50°47' E 000°60'713.5
2018-Feb-01 05:59N 50°52' E 001°08'613.5
2018-Feb-01 05:31N 50°57' E 001°15'713.1
2018-Feb-01 05:01N 51°01' E 001°22'612.1
2018-Feb-01 04:31N 51°05' E 001°30'  

Dump ship's entire track history